createdAt,value
2022-11-29T00:04:46.788Z,2.66
2022-11-29T00:09:48.366Z,2.70
2022-11-29T00:14:49.988Z,2.72
2022-11-29T00:19:51.520Z,2.66
2022-11-29T00:24:53.314Z,2.63
2022-11-29T00:29:54.876Z,2.66
2022-11-29T00:34:59.379Z,2.72
2022-11-29T00:40:01.280Z,2.69
2022-11-29T00:45:03.045Z,2.75
2022-11-29T00:50:05.476Z,2.81
2022-11-29T00:55:07.719Z,2.90
2022-11-29T01:00:09.865Z,2.91
2022-11-29T01:05:11.446Z,2.98
2022-11-29T01:10:13.119Z,3.00
2022-11-29T01:15:14.840Z,3.00
2022-11-29T01:20:16.666Z,3.03
2022-11-29T01:25:19.411Z,3.04
2022-11-29T01:30:21.453Z,3.00
2022-11-29T01:35:23.031Z,2.96
2022-11-29T01:40:24.598Z,2.84
2022-11-29T01:45:26.840Z,2.95
2022-11-29T01:50:28.422Z,3.04
2022-11-29T01:55:30.757Z,3.09
2022-11-29T02:00:32.619Z,3.19
2022-11-29T02:05:34.343Z,3.25
2022-11-29T02:10:51.712Z,3.32
2022-11-29T02:16:03.275Z,3.32
2022-11-29T02:21:04.832Z,3.35
2022-11-29T02:26:33.631Z,3.35
2022-11-29T02:31:41.250Z,3.37
2022-11-29T02:37:00.447Z,3.38
2022-11-29T02:42:55.747Z,3.34
2022-11-29T02:48:22.656Z,3.30
2022-11-29T02:53:38.867Z,3.32
2022-11-29T02:58:58.936Z,3.32
2022-11-29T03:04:33.801Z,3.33
2022-11-29T03:09:55.588Z,3.38
2022-11-29T03:15:15.110Z,3.31
2022-11-29T03:20:29.095Z,3.26
2022-11-29T03:25:42.303Z,3.21
2022-11-29T03:30:51.256Z,3.25
2022-11-29T03:36:12.060Z,3.31
2022-11-29T03:41:37.865Z,3.32
2022-11-29T03:46:52.372Z,3.29
2022-11-29T03:52:01.167Z,3.24
2022-11-29T03:57:03.493Z,3.33
2022-11-29T04:02:39.170Z,3.41
2022-11-29T04:08:11.804Z,3.50
2022-11-29T04:13:29.164Z,3.50
2022-11-29T04:19:15.428Z,3.53
2022-11-29T04:24:49.747Z,3.55
2022-11-29T04:29:51.279Z,3.51
2022-11-29T04:35:04.943Z,3.46
2022-11-29T04:40:09.450Z,3.52
2022-11-29T04:45:46.410Z,3.58
2022-11-29T04:50:53.972Z,3.59
2022-11-29T04:56:25.607Z,3.63
2022-11-29T05:01:43.385Z,3.65
2022-11-29T05:06:58.373Z,3.64
2022-11-29T05:12:20.078Z,3.61
2022-11-29T05:17:24.387Z,3.67
2022-11-29T05:23:07.485Z,3.69
2022-11-29T05:28:20.734Z,3.67
2022-11-29T05:33:53.277Z,3.73
2022-11-29T05:39:24.419Z,3.74
2022-11-29T05:44:37.830Z,3.71
2022-11-29T05:49:39.423Z,3.66
2022-11-29T05:54:59.351Z,3.64
2022-11-29T06:00:03.161Z,3.59
2022-11-29T06:05:38.831Z,3.57
2022-11-29T06:10:56.417Z,3.61
2022-11-29T06:16:33.688Z,3.64
2022-11-29T06:21:45.977Z,3.66
2022-11-29T06:27:35.264Z,3.55
2022-11-29T06:33:07.424Z,3.64
2022-11-29T06:38:25.807Z,3.63
2022-11-29T06:43:27.874Z,3.67
2022-11-29T06:48:38.491Z,3.72
2022-11-29T06:53:54.312Z,3.77
2022-11-29T06:59:44.233Z,3.78
2022-11-29T07:04:55.879Z,3.81
2022-11-29T07:10:00.626Z,3.82
2022-11-29T07:15:02.510Z,3.85
2022-11-29T07:20:23.559Z,3.95
2022-11-29T07:25:43.560Z,3.93
2022-11-29T07:30:49.592Z,3.82
2022-11-29T07:36:13.847Z,3.86
2022-11-29T07:41:32.163Z,3.96
2022-11-29T07:46:33.873Z,4.04
2022-11-29T07:51:35.502Z,4.06
2022-11-29T07:56:37.071Z,4.17
2022-11-29T08:01:39.874Z,4.27
2022-11-29T08:06:41.496Z,4.37
2022-11-29T08:11:43.075Z,4.47
2022-11-29T08:16:44.675Z,4.35
2022-11-29T08:21:48.226Z,4.35
2022-11-29T08:26:50.105Z,4.39
2022-11-29T08:31:53.623Z,4.42
2022-11-29T08:36:56.497Z,4.49
2022-11-29T08:41:58.150Z,4.51
2022-11-29T08:47:18.339Z,4.52
2022-11-29T08:52:38.530Z,4.42
2022-11-29T08:57:41.174Z,4.44
2022-11-29T09:02:43.219Z,4.56
2022-11-29T09:07:46.362Z,4.68
2022-11-29T09:12:49.573Z,4.89
2022-11-29T09:17:51.125Z,5.30
2022-11-29T09:22:52.745Z,5.58
2022-11-29T09:27:57.224Z,5.96
2022-11-29T09:33:05.286Z,6.24
2022-11-29T09:38:06.947Z,6.01
2022-11-29T09:43:23.898Z,6.18
2022-11-29T09:48:34.182Z,6.44
2022-11-29T09:54:06.712Z,6.42
2022-11-29T09:59:18.490Z,6.16
2022-11-29T10:04:25.293Z,6.43
2022-11-29T10:09:33.786Z,6.04
2022-11-29T10:14:57.275Z,6.22
2022-11-29T10:20:22.659Z,5.97
2022-11-29T10:25:30.560Z,6.51
2022-11-29T10:30:36.064Z,6.82
2022-11-29T10:35:37.711Z,6.35
2022-11-29T10:40:41.889Z,6.14
2022-11-29T10:45:50.686Z,6.27
2022-11-29T10:50:53.055Z,6.41
2022-11-29T10:56:05.863Z,6.57
2022-11-29T11:01:08.655Z,6.69
2022-11-29T11:06:22.029Z,6.56
2022-11-29T11:11:27.051Z,6.61
2022-11-29T11:16:32.928Z,6.60
2022-11-29T11:21:39.141Z,7.00
2022-11-29T11:26:44.319Z,7.43
2022-11-29T11:31:59.137Z,7.71
2022-11-29T11:37:19.546Z,7.80
2022-11-29T11:42:38.065Z,7.25
2022-11-29T11:47:46.477Z,7.52
2022-11-29T11:52:54.921Z,7.40
2022-11-29T11:58:10.508Z,7.32
2022-11-29T12:03:30.393Z,6.83
2022-11-29T12:08:33.893Z,7.27
2022-11-29T12:13:39.864Z,7.38
2022-11-29T12:18:50.097Z,7.41
2022-11-29T12:24:16.380Z,7.58
2022-11-29T12:29:20.064Z,7.73
2022-11-29T12:34:43.038Z,7.24
2022-11-29T12:39:58.647Z,7.07
2022-11-29T12:45:40.667Z,7.07
2022-11-29T12:51:14.466Z,7.00
2022-11-29T12:56:26.780Z,6.78
2022-11-29T13:01:55.471Z,6.87
2022-11-29T13:07:29.506Z,6.78
2022-11-29T13:12:49.986Z,6.91
2022-11-29T13:18:39.289Z,6.79
2022-11-29T13:24:11.423Z,6.65
2022-11-29T13:29:17.030Z,6.39
2022-11-29T13:34:36.179Z,6.27
2022-11-29T13:40:15.348Z,6.14
2022-11-29T13:45:31.476Z,6.05
2022-11-29T13:50:45.756Z,5.87
2022-11-29T13:56:00.722Z,5.69
2022-11-29T14:01:08.272Z,5.76
2022-11-29T14:06:32.302Z,5.59
2022-11-29T14:11:43.212Z,5.50
2022-11-29T14:16:51.278Z,5.38
2022-11-29T14:21:58.808Z,5.25
2022-11-29T14:27:06.596Z,5.26
2022-11-29T14:32:35.201Z,5.13
2022-11-29T14:37:43.910Z,5.11
2022-11-29T14:42:48.205Z,5.04
2022-11-29T14:47:50.303Z,5.05
2022-11-29T14:52:52.472Z,5.03
2022-11-29T14:58:04.039Z,4.84
2022-11-29T15:03:33.201Z,4.88
2022-11-29T15:08:51.736Z,4.85
2022-11-29T15:14:03.342Z,4.87
2022-11-29T15:19:20.228Z,4.87
2022-11-29T15:24:28.041Z,4.84
2022-11-29T15:29:31.553Z,4.87
2022-11-29T15:34:33.191Z,4.83
2022-11-29T15:39:37.335Z,4.88
2022-11-29T15:44:46.063Z,4.84
2022-11-29T15:49:48.738Z,4.86
2022-11-29T15:54:55.381Z,4.80
2022-11-29T16:00:03.588Z,4.89
2022-11-29T16:05:18.535Z,4.79
2022-11-29T16:10:23.290Z,4.74
2022-11-29T16:15:33.140Z,4.70
2022-11-29T16:20:34.872Z,4.68
2022-11-29T16:25:51.762Z,4.64
2022-11-29T16:30:53.463Z,4.72
2022-11-29T16:36:15.263Z,4.65
2022-11-29T16:41:33.325Z,4.64
2022-11-29T16:46:38.187Z,4.51
2022-11-29T16:51:48.131Z,4.46
2022-11-29T16:56:51.574Z,4.52
2022-11-29T17:01:53.451Z,4.46
2022-11-29T17:06:56.357Z,4.53
2022-11-29T17:12:01.696Z,4.55
2022-11-29T17:17:03.540Z,4.60
2022-11-29T17:22:05.271Z,4.49
2022-11-29T17:27:07.374Z,4.42
2022-11-29T17:32:09.009Z,4.35
2022-11-29T17:37:10.702Z,4.24
2022-11-29T17:42:12.391Z,4.27
2022-11-29T17:47:14.208Z,4.26
2022-11-29T17:52:15.863Z,4.28
2022-11-29T17:57:18.304Z,4.32
2022-11-29T18:02:19.946Z,4.23
2022-11-29T18:07:21.710Z,4.24
2022-11-29T18:12:23.643Z,4.17
2022-11-29T18:17:25.229Z,4.18
2022-11-29T18:22:26.845Z,4.15
2022-11-29T18:27:28.426Z,4.28
2022-11-29T18:32:30.626Z,4.30
2022-11-29T18:38:05.146Z,4.27
2022-11-29T18:42:53.748Z,4.17
2022-11-29T18:47:55.403Z,4.19
2022-11-29T18:52:58.477Z,4.17
2022-11-29T18:58:00.051Z,4.20
2022-11-29T19:03:01.609Z,4.17
2022-11-29T19:08:03.260Z,4.17
2022-11-29T19:13:04.877Z,4.18
2022-11-29T19:18:06.453Z,4.16
2022-11-29T19:23:08.032Z,4.21
2022-11-29T19:28:14.029Z,4.26
2022-11-29T19:33:16.068Z,4.26
2022-11-29T19:38:17.702Z,4.29
2022-11-29T19:43:19.378Z,4.29
2022-11-29T19:48:20.988Z,4.31
2022-11-29T19:53:22.626Z,4.34
2022-11-29T19:58:24.474Z,4.24
2022-11-29T20:03:26.039Z,4.18
2022-11-29T20:08:28.580Z,3.97
2022-11-29T20:13:30.177Z,4.02
2022-11-29T20:18:34.659Z,3.96
2022-11-29T20:23:37.711Z,3.98
2022-11-29T20:28:39.295Z,4.03
2022-11-29T20:33:42.526Z,4.00
2022-11-29T20:38:53.228Z,4.02
2022-11-29T20:44:02.561Z,4.07
2022-11-29T20:49:06.785Z,3.87
2022-11-29T20:54:11.123Z,3.84
2022-11-29T20:59:12.817Z,3.87
2022-11-29T21:04:17.701Z,3.98
2022-11-29T21:09:21.807Z,3.87
2022-11-29T21:14:23.765Z,3.96
2022-11-29T21:19:26.281Z,3.97
2022-11-29T21:24:49.634Z,3.89
2022-11-29T21:29:51.932Z,3.91
2022-11-29T21:34:53.552Z,3.79
2022-11-29T21:39:55.418Z,3.82
2022-11-29T21:44:57.057Z,3.82
2022-11-29T21:49:58.757Z,3.76
2022-11-29T21:55:00.335Z,3.72
2022-11-29T22:00:02.665Z,3.77
2022-11-29T22:05:07.901Z,3.84
2022-11-29T22:10:13.299Z,3.81
2022-11-29T22:15:19.020Z,3.77
2022-11-29T22:20:24.410Z,3.77
2022-11-29T22:25:26.020Z,3.81
2022-11-29T22:30:27.582Z,3.85
2022-11-29T22:35:29.153Z,3.76
2022-11-29T22:40:30.735Z,3.79
2022-11-29T22:45:32.766Z,3.70
2022-11-29T22:50:34.344Z,3.73
2022-11-29T22:55:35.959Z,3.82
2022-11-29T23:00:43.770Z,3.84
2022-11-29T23:05:45.544Z,3.86
2022-11-29T23:10:56.914Z,3.81
2022-11-29T23:15:58.513Z,3.71
2022-11-29T23:21:01.014Z,3.67
2022-11-29T23:26:03.960Z,3.58
2022-11-29T23:31:05.527Z,3.64
2022-11-29T23:36:08.686Z,3.68
2022-11-29T23:41:11.649Z,3.74
2022-11-29T23:46:21.315Z,3.76
2022-11-29T23:51:22.906Z,3.65
2022-11-29T23:56:24.467Z,3.65
